createdAt,value
2023-01-19T00:00:20.660Z,81.8
2023-01-19T00:01:20.560Z,81.9
2023-01-19T00:02:20.559Z,82.1
2023-01-19T00:03:20.575Z,82.3
2023-01-19T00:04:20.563Z,82.2
2023-01-19T00:05:20.592Z,82.2
2023-01-19T00:06:20.690Z,82
2023-01-19T00:07:20.573Z,82.4
2023-01-19T00:08:20.578Z,82.5
2023-01-19T00:09:20.570Z,82.6
2023-01-19T00:10:20.602Z,82.5
2023-01-19T00:11:20.571Z,82.6
2023-01-19T00:12:20.562Z,82.6
2023-01-19T00:13:20.591Z,82.9
2023-01-19T00:14:20.564Z,83
2023-01-19T00:15:20.555Z,83
2023-01-19T00:16:20.644Z,83.2
2023-01-19T00:17:20.570Z,83.1
2023-01-19T00:18:20.558Z,83
2023-01-19T00:19:20.558Z,82.8
2023-01-19T00:20:20.573Z,82.7
2023-01-19T00:21:20.560Z,82.6
2023-01-19T00:22:20.554Z,82.5
2023-01-19T00:23:20.678Z,82.8
2023-01-19T00:24:20.572Z,83.1
2023-01-19T00:25:20.563Z,83
2023-01-19T00:26:20.563Z,83.2
2023-01-19T00:27:20.560Z,83.5
2023-01-19T00:28:20.565Z,83.4
2023-01-19T00:29:20.623Z,83.2
2023-01-19T00:30:20.558Z,83.2
2023-01-19T00:31:20.903Z,83.1
2023-01-19T00:32:20.560Z,83.1
2023-01-19T00:33:20.581Z,83
2023-01-19T00:34:20.593Z,82.8
2023-01-19T00:35:20.558Z,82.7
2023-01-19T00:36:20.634Z,82.4
2023-01-19T00:37:20.559Z,82.5
2023-01-19T00:38:20.551Z,82.6
2023-01-19T00:39:20.554Z,82.7
2023-01-19T00:40:20.551Z,82.6
2023-01-19T00:41:20.586Z,82.4
2023-01-19T00:42:20.553Z,82.8
2023-01-19T00:43:20.558Z,83
2023-01-19T00:44:20.580Z,82.8
2023-01-19T00:45:20.557Z,82.7
2023-01-19T00:46:20.557Z,82.6
2023-01-19T00:47:20.561Z,82.6
2023-01-19T00:48:20.556Z,82.4
2023-01-19T00:49:20.558Z,82.6
2023-01-19T00:50:20.561Z,82.6
2023-01-19T00:51:20.552Z,82.5
2023-01-19T00:52:20.573Z,82.5
2023-01-19T00:53:20.609Z,82.6
2023-01-19T00:54:20.558Z,82.6
2023-01-19T00:55:20.561Z,82.7
2023-01-19T00:56:20.570Z,82.7
2023-01-19T00:57:20.557Z,82.8
2023-01-19T00:58:20.553Z,82.8
2023-01-19T00:59:20.552Z,83
2023-01-19T01:00:20.555Z,82.9
2023-01-19T01:01:20.638Z,83.1
2023-01-19T01:02:20.702Z,83.3
2023-01-19T01:03:20.654Z,83.1
2023-01-19T01:04:20.561Z,82.9
2023-01-19T01:05:20.554Z,82.7
2023-01-19T01:06:20.553Z,82.8
2023-01-19T01:07:20.588Z,82.9
2023-01-19T01:08:20.645Z,83
2023-01-19T01:09:20.553Z,83.3
2023-01-19T01:10:20.564Z,83.3
2023-01-19T01:11:20.587Z,83.3
2023-01-19T01:12:20.555Z,83.5
2023-01-19T01:13:22.194Z,83.6
2023-01-19T01:14:20.560Z,83.5
2023-01-19T01:15:20.551Z,83.6
2023-01-19T01:16:20.575Z,83.8
2023-01-19T01:17:20.547Z,83.8
2023-01-19T01:18:20.547Z,83.9
2023-01-19T01:19:20.562Z,83.8
2023-01-19T01:20:20.552Z,83.9
2023-01-19T01:21:20.584Z,83.9
2023-01-19T01:22:20.551Z,84.2
2023-01-19T01:23:20.544Z,84.3
2023-01-19T01:24:20.544Z,84.4
2023-01-19T01:25:20.554Z,84.6
2023-01-19T01:26:20.556Z,84.9
2023-01-19T01:27:20.551Z,84.8
2023-01-19T01:28:20.554Z,85.2
2023-01-19T01:29:20.554Z,85.2
2023-01-19T01:30:20.564Z,85.1
2023-01-19T01:31:20.600Z,85.4
2023-01-19T01:32:20.545Z,85.6
2023-01-19T01:33:41.370Z,85.4
2023-01-19T01:34:20.563Z,85.1
2023-01-19T01:35:20.547Z,85.1
2023-01-19T01:36:20.558Z,85.3
2023-01-19T01:37:20.553Z,85.4
2023-01-19T01:38:20.573Z,85.8
2023-01-19T01:39:20.546Z,85.8
2023-01-19T01:40:20.543Z,85.6
2023-01-19T01:41:21.174Z,85.5
2023-01-19T01:42:20.550Z,85.4
2023-01-19T01:43:20.546Z,85.3
2023-01-19T01:44:20.559Z,85.2
2023-01-19T01:45:20.560Z,85.2
2023-01-19T01:46:20.568Z,85.2
2023-01-19T01:47:20.555Z,85.1
2023-01-19T01:48:20.543Z,85.2
2023-01-19T01:49:20.542Z,84.9
2023-01-19T01:50:20.628Z,84.7
2023-01-19T01:51:20.537Z,84.7
2023-01-19T01:52:20.543Z,84.7
2023-01-19T01:53:20.538Z,84.7
2023-01-19T01:54:20.549Z,84.7
2023-01-19T01:55:20.549Z,84.6
2023-01-19T01:56:20.538Z,84.9
2023-01-19T01:57:20.551Z,84.7
2023-01-19T01:58:20.546Z,84.7
2023-01-19T01:59:20.539Z,84.5
2023-01-19T02:00:20.543Z,84.2
2023-01-19T02:01:20.639Z,84
2023-01-19T02:02:20.545Z,84
2023-01-19T02:03:20.591Z,83.8
2023-01-19T02:04:20.547Z,84.2
2023-01-19T02:05:20.573Z,83.9
2023-01-19T02:06:20.544Z,84
2023-01-19T02:07:20.544Z,84.1
2023-01-19T02:08:20.545Z,84.4
2023-01-19T02:09:20.580Z,84.6
2023-01-19T02:10:20.557Z,84.5
2023-01-19T02:11:20.546Z,84.2
2023-01-19T02:12:20.725Z,84
2023-01-19T02:13:20.581Z,83.9
2023-01-19T02:14:20.550Z,83.8
2023-01-19T02:15:20.592Z,84
2023-01-19T02:16:20.646Z,84.1
2023-01-19T02:17:20.533Z,84.1
2023-01-19T02:18:20.544Z,84.1
2023-01-19T02:19:20.579Z,84.2
2023-01-19T02:20:20.566Z,84.1
2023-01-19T02:21:20.541Z,84.2
2023-01-19T02:22:20.540Z,84.3
2023-01-19T02:23:20.544Z,84.2
2023-01-19T02:24:20.546Z,84
2023-01-19T02:25:20.620Z,84
2023-01-19T02:26:20.563Z,84.3
2023-01-19T02:27:20.632Z,84.2
2023-01-19T02:28:20.529Z,84.2
2023-01-19T02:29:20.550Z,83.9
2023-01-19T02:30:20.538Z,84
2023-01-19T02:31:20.557Z,83.7
2023-01-19T02:32:20.605Z,83.6
2023-01-19T02:33:20.548Z,83.6
2023-01-19T02:34:20.560Z,83.8
2023-01-19T02:35:20.611Z,83.7
2023-01-19T02:36:20.539Z,83.9
2023-01-19T02:37:20.553Z,83.8
2023-01-19T02:38:20.538Z,83.4
2023-01-19T02:39:20.542Z,83.3
2023-01-19T02:40:20.568Z,83.4
2023-01-19T02:41:20.540Z,83.6
2023-01-19T02:42:20.571Z,83.7
2023-01-19T02:43:20.541Z,83.8
2023-01-19T02:44:20.557Z,83.5
2023-01-19T02:45:20.576Z,83.6
2023-01-19T02:46:20.614Z,83.3
2023-01-19T02:47:20.541Z,83.6
2023-01-19T02:48:20.547Z,83.4
2023-01-19T02:49:20.573Z,83.1
2023-01-19T02:50:20.540Z,82.9
2023-01-19T02:51:20.540Z,82.8
2023-01-19T02:52:20.541Z,83
2023-01-19T02:53:20.535Z,82.6
2023-01-19T02:54:20.569Z,82.8
2023-01-19T02:55:20.532Z,82.5
2023-01-19T02:56:20.548Z,82.5
2023-01-19T02:57:20.539Z,82.4
2023-01-19T02:58:20.536Z,82.4
2023-01-19T02:59:20.530Z,82.6
2023-01-19T03:00:20.541Z,82.6
2023-01-19T03:01:20.677Z,82.5
2023-01-19T03:02:20.650Z,82.6
2023-01-19T03:03:20.532Z,82.5
2023-01-19T03:04:20.529Z,82.7
2023-01-19T03:05:20.573Z,82.3
2023-01-19T03:06:20.536Z,82.1
2023-01-19T03:07:20.535Z,82
2023-01-19T03:08:20.531Z,82.1
2023-01-19T03:09:20.546Z,82.4
2023-01-19T03:10:20.554Z,82.1
2023-01-19T03:11:20.575Z,82.3
2023-01-19T03:12:20.663Z,82.2
2023-01-19T03:13:20.534Z,82.1
2023-01-19T03:14:20.533Z,82.4
2023-01-19T03:15:20.531Z,82.6
2023-01-19T03:16:21.794Z,82.7
2023-01-19T03:17:20.553Z,82.7
2023-01-19T03:18:20.538Z,82.8
2023-01-19T03:19:20.539Z,82.8
2023-01-19T03:20:20.528Z,82.7
2023-01-19T03:21:20.532Z,82.6
2023-01-19T03:22:20.537Z,83
2023-01-19T03:23:20.539Z,82.7
2023-01-19T03:24:20.547Z,82.7
2023-01-19T03:25:20.528Z,82.9
2023-01-19T03:26:20.546Z,83.3
2023-01-19T03:27:20.754Z,83.3
2023-01-19T03:28:20.535Z,82.9
2023-01-19T03:29:20.634Z,83.1
2023-01-19T03:30:20.545Z,83.2
2023-01-19T03:31:20.630Z,83.4
2023-01-19T03:32:20.526Z,83.2
2023-01-19T03:33:20.533Z,83.1
2023-01-19T03:34:20.532Z,83.1
2023-01-19T03:35:20.542Z,83.3
2023-01-19T03:36:20.536Z,83.2
2023-01-19T03:37:20.544Z,83.4
2023-01-19T03:38:20.527Z,83.1
2023-01-19T03:39:20.537Z,82.8
2023-01-19T03:40:20.521Z,83
2023-01-19T03:41:21.169Z,83.1
2023-01-19T03:42:20.559Z,83.3
2023-01-19T03:43:20.531Z,83.3
2023-01-19T03:44:20.531Z,83.2
2023-01-19T03:45:20.556Z,83.3
2023-01-19T03:46:20.589Z,83.6
2023-01-19T03:47:20.535Z,83.7
2023-01-19T03:48:20.536Z,83.5
2023-01-19T03:49:20.529Z,83.8
2023-01-19T03:50:20.531Z,83.6
2023-01-19T03:51:20.526Z,83.3
2023-01-19T03:52:20.557Z,83.4
2023-01-19T03:53:20.533Z,83.2
2023-01-19T03:54:20.529Z,83.6
2023-01-19T03:55:20.525Z,83.6
2023-01-19T03:56:20.525Z,83.4
2023-01-19T03:57:20.528Z,83.4
2023-01-19T03:58:20.521Z,83.4
2023-01-19T03:59:20.526Z,83.5
2023-01-19T04:00:20.529Z,83.5
2023-01-19T04:01:20.765Z,83.3
2023-01-19T04:02:20.828Z,83.6
2023-01-19T04:03:20.643Z,83.7
2023-01-19T04:04:20.542Z,83.6
2023-01-19T04:05:20.536Z,83.2
2023-01-19T04:06:20.523Z,83.4
2023-01-19T04:08:20.521Z,83.1
2023-01-19T04:09:20.534Z,83
2023-01-19T04:10:20.555Z,82.9
2023-01-19T04:11:20.530Z,83.1
2023-01-19T04:12:20.535Z,83.2
2023-01-19T04:13:20.552Z,83
2023-01-19T04:14:20.544Z,83
2023-01-19T04:15:20.545Z,82.9
2023-01-19T04:16:20.560Z,82.9
2023-01-19T04:17:20.532Z,82.6
2023-01-19T04:18:20.527Z,82.3
2023-01-19T04:19:20.529Z,82.1
2023-01-19T04:20:20.521Z,82.1
2023-01-19T04:21:20.524Z,82.1
2023-01-19T04:22:20.533Z,82
2023-01-19T04:23:20.536Z,82.1
2023-01-19T04:24:20.529Z,81.9
2023-01-19T04:25:20.523Z,81.8
2023-01-19T04:26:20.536Z,81.9
2023-01-19T04:27:20.533Z,82
2023-01-19T04:28:20.527Z,82
2023-01-19T04:29:20.528Z,81.7
2023-01-19T04:30:20.545Z,82
2023-01-19T04:31:20.596Z,81.3
2023-01-19T04:32:20.525Z,80.9
2023-01-19T04:33:20.538Z,81.1
2023-01-19T04:34:20.517Z,80.9
2023-01-19T04:35:20.530Z,80.7
2023-01-19T04:36:20.526Z,80.3
2023-01-19T04:37:20.546Z,80.3
2023-01-19T04:38:20.531Z,80.5
2023-01-19T04:39:20.568Z,80.3
2023-01-19T04:40:20.523Z,80.4
2023-01-19T04:41:27.187Z,80.7
2023-01-19T04:42:20.516Z,80.6
2023-01-19T04:43:20.556Z,80.8
2023-01-19T04:44:20.584Z,81
2023-01-19T04:45:20.515Z,80.9
2023-01-19T04:46:20.575Z,80.6
2023-01-19T04:47:20.530Z,80.7
2023-01-19T04:48:20.528Z,80.5
2023-01-19T04:49:20.521Z,80.4
2023-01-19T04:50:20.522Z,80.4
2023-01-19T04:51:20.527Z,80
2023-01-19T04:52:20.524Z,80.1
2023-01-19T04:53:20.537Z,80.2
2023-01-19T04:54:20.608Z,80.2
2023-01-19T04:55:20.523Z,80.4
2023-01-19T04:56:20.526Z,80.3
2023-01-19T04:57:20.525Z,80.2
2023-01-19T04:58:20.543Z,80.1
2023-01-19T04:59:20.515Z,80.3
2023-01-19T05:00:20.525Z,80.5
2023-01-19T05:01:20.610Z,80.6
2023-01-19T05:02:20.552Z,80.8
2023-01-19T05:03:20.645Z,80.6
2023-01-19T05:04:20.516Z,80.4
2023-01-19T05:05:20.522Z,80.5
2023-01-19T05:06:20.537Z,80.6
2023-01-19T05:07:20.552Z,80.7
2023-01-19T05:08:20.522Z,80.8
2023-01-19T05:09:20.539Z,80.9
2023-01-19T05:10:20.587Z,80.6
2023-01-19T05:11:20.520Z,80.6
2023-01-19T05:12:20.517Z,80.4
2023-01-19T05:13:20.522Z,80.6
2023-01-19T05:14:20.519Z,80.4
2023-01-19T05:15:20.542Z,80.8
2023-01-19T05:16:20.568Z,80.5
2023-01-19T05:17:20.533Z,80.7
2023-01-19T05:18:20.511Z,80.5
2023-01-19T05:19:20.522Z,80.5
2023-01-19T05:20:20.513Z,80.4
2023-01-19T05:21:20.529Z,80.5
2023-01-19T05:22:20.542Z,80.5
2023-01-19T05:23:20.527Z,80.8
2023-01-19T05:24:20.513Z,80.8
2023-01-19T05:25:20.524Z,80.9
2023-01-19T05:26:20.532Z,80.8
2023-01-19T05:27:20.521Z,80.6
2023-01-19T05:28:20.518Z,80.7
2023-01-19T05:29:20.508Z,80.8
2023-01-19T05:30:20.518Z,80.8
2023-01-19T05:31:20.641Z,80.8
2023-01-19T05:32:20.509Z,81
2023-01-19T05:33:20.507Z,80.7
2023-01-19T05:34:20.519Z,80.8
2023-01-19T05:35:31.320Z,80.7
2023-01-19T05:36:20.520Z,80.6
2023-01-19T05:37:20.519Z,80.8
2023-01-19T05:38:29.362Z,80.8
2023-01-19T05:39:20.507Z,80.9
2023-01-19T05:40:20.551Z,80.9
2023-01-19T05:41:14.779Z,80.9
2023-01-19T05:42:20.524Z,81.5
2023-01-19T05:43:20.521Z,81.7
2023-01-19T05:44:20.517Z,81.9
2023-01-19T05:45:20.514Z,82.2
2023-01-19T05:46:20.589Z,82.6
2023-01-19T05:47:20.522Z,83
2023-01-19T05:48:20.535Z,83.2
2023-01-19T05:49:20.509Z,83.2
2023-01-19T05:50:20.503Z,83.5
2023-01-19T05:51:20.513Z,83.9
2023-01-19T05:52:20.507Z,84.2
2023-01-19T05:53:20.518Z,84.7
2023-01-19T05:54:20.507Z,84.8
2023-01-19T05:55:20.511Z,85.4
2023-01-19T05:56:20.571Z,85.7
2023-01-19T05:57:20.515Z,86.3
2023-01-19T05:58:20.525Z,86.8
2023-01-19T05:59:20.525Z,87.3
2023-01-19T06:01:20.547Z,87.5
2023-01-19T06:02:20.568Z,87.8
2023-01-19T06:03:20.543Z,88.1
2023-01-19T06:04:20.513Z,88.2
2023-01-19T06:05:20.501Z,88.6
2023-01-19T06:06:20.518Z,89
2023-01-19T06:07:20.498Z,89.2
2023-01-19T06:08:20.508Z,89.9
2023-01-19T06:09:20.505Z,89.8
2023-01-19T06:10:20.517Z,90.1
2023-01-19T06:11:20.517Z,90.6
2023-01-19T06:12:20.502Z,91.2
2023-01-19T06:13:20.511Z,91.5
2023-01-19T06:14:20.518Z,91.7
2023-01-19T06:15:20.575Z,92
2023-01-19T06:16:20.552Z,92.3
2023-01-19T06:17:20.554Z,92.6
2023-01-19T06:18:20.509Z,93
2023-01-19T06:19:20.513Z,93.4
2023-01-19T06:20:20.545Z,93.7
2023-01-19T06:21:20.569Z,93.9
2023-01-19T06:22:20.516Z,94
2023-01-19T06:23:20.511Z,94.3
2023-01-19T06:24:20.532Z,94.6
2023-01-19T06:25:20.517Z,94.9
2023-01-19T06:26:20.503Z,95
2023-01-19T06:27:20.504Z,95.1
2023-01-19T06:28:20.505Z,95.3
2023-01-19T06:29:20.510Z,95.4
2023-01-19T06:30:20.510Z,95.4
2023-01-19T06:31:20.595Z,95.9
2023-01-19T06:32:20.533Z,96
2023-01-19T06:33:20.500Z,95.9
2023-01-19T06:35:20.508Z,96.4
2023-01-19T06:36:20.507Z,96.4
2023-01-19T06:37:20.519Z,96.8
2023-01-19T06:38:20.511Z,96.9
2023-01-19T06:39:20.516Z,96.9
2023-01-19T06:40:20.502Z,97.1
2023-01-19T06:41:20.523Z,97.2
2023-01-19T06:42:20.507Z,97.8
2023-01-19T06:43:20.502Z,97.8
2023-01-19T06:44:20.505Z,97.9
2023-01-19T06:45:20.507Z,97.8
2023-01-19T06:46:20.520Z,97.9
2023-01-19T06:47:20.504Z,98.1
2023-01-19T06:48:20.592Z,98.1
2023-01-19T06:49:20.512Z,98.3
2023-01-19T06:50:20.499Z,98.2
2023-01-19T06:51:20.508Z,98.4
2023-01-19T06:52:20.518Z,98.6
2023-01-19T06:53:20.495Z,98.6
2023-01-19T06:54:20.516Z,99
2023-01-19T06:55:20.500Z,99.1
2023-01-19T06:56:20.531Z,99.2
2023-01-19T06:57:20.506Z,99.4
2023-01-19T06:58:20.509Z,99.5
2023-01-19T06:59:20.566Z,99.4
2023-01-19T07:00:20.513Z,99.4
2023-01-19T07:01:20.729Z,99.5
2023-01-19T07:02:26.695Z,99.6
2023-01-19T07:03:20.609Z,99.8
2023-01-19T07:04:20.503Z,99.7
2023-01-19T07:05:20.523Z,100
2023-01-19T07:06:20.515Z,100
2023-01-19T07:07:20.509Z,100
2023-01-19T07:08:20.496Z,99.8
2023-01-19T07:09:20.544Z,99.9
2023-01-19T07:10:20.500Z,100
2023-01-19T07:11:26.815Z,100
2023-01-19T07:12:20.503Z,100
2023-01-19T07:13:20.493Z,100
2023-01-19T07:14:20.515Z,100
2023-01-19T07:15:20.493Z,100
2023-01-19T07:16:20.535Z,100
2023-01-19T07:17:20.496Z,100
2023-01-19T07:18:20.502Z,100
2023-01-19T07:19:20.517Z,100
2023-01-19T07:20:20.506Z,100
2023-01-19T07:22:20.578Z,100
2023-01-19T07:23:20.802Z,100
2023-01-19T07:24:20.699Z,100
2023-01-19T07:25:20.512Z,100
2023-01-19T07:26:20.829Z,100
2023-01-19T07:27:20.490Z,100
2023-01-19T07:28:20.508Z,100
2023-01-19T07:29:20.492Z,100
2023-01-19T07:30:20.506Z,100
2023-01-19T07:31:20.686Z,100
2023-01-19T07:32:20.507Z,100
2023-01-19T07:33:20.491Z,100
2023-01-19T07:34:20.500Z,100
2023-01-19T07:35:20.503Z,100
2023-01-19T07:36:20.504Z,100
2023-01-19T07:37:20.509Z,100
2023-01-19T07:38:20.531Z,100
2023-01-19T07:39:20.502Z,100
2023-01-19T07:40:22.140Z,100
2023-01-19T07:41:20.517Z,100
2023-01-19T07:42:20.487Z,100
2023-01-19T07:43:20.504Z,100
2023-01-19T07:44:20.492Z,100
2023-01-19T07:45:20.495Z,100
2023-01-19T07:46:20.550Z,100
2023-01-19T07:47:20.522Z,100
2023-01-19T07:48:20.495Z,100
2023-01-19T07:49:20.495Z,100
2023-01-19T07:50:20.514Z,100
2023-01-19T07:51:20.493Z,100
2023-01-19T07:52:20.493Z,100
2023-01-19T07:53:20.498Z,100
2023-01-19T07:54:20.491Z,100
2023-01-19T07:55:20.497Z,100
2023-01-19T07:56:20.503Z,100
2023-01-19T07:57:20.495Z,100
2023-01-19T07:58:20.529Z,100
2023-01-19T07:59:20.487Z,100
2023-01-19T08:00:20.500Z,100
2023-01-19T08:01:20.589Z,100
2023-01-19T08:02:20.694Z,100
2023-01-19T08:03:20.523Z,100
2023-01-19T08:04:20.531Z,100
2023-01-19T08:05:20.497Z,100
2023-01-19T08:06:20.495Z,100
2023-01-19T08:07:20.496Z,100
2023-01-19T08:08:20.497Z,100
2023-01-19T08:09:20.499Z,100
2023-01-19T08:10:20.519Z,100
2023-01-19T08:11:20.488Z,100
2023-01-19T08:12:20.503Z,100
2023-01-19T08:13:20.515Z,100
2023-01-19T08:14:20.496Z,100
2023-01-19T08:15:20.495Z,100
2023-01-19T08:16:20.509Z,100
2023-01-19T08:17:20.521Z,100
2023-01-19T08:18:20.502Z,100
2023-01-19T08:19:20.499Z,100
2023-01-19T08:20:20.483Z,100
2023-01-19T08:21:20.519Z,100
2023-01-19T08:22:20.507Z,100
2023-01-19T08:23:20.500Z,100
2023-01-19T08:24:20.566Z,100
2023-01-19T08:25:20.495Z,100
2023-01-19T08:26:20.492Z,100
2023-01-19T08:27:20.499Z,100
2023-01-19T08:28:20.485Z,100
2023-01-19T08:29:20.500Z,100
2023-01-19T08:30:20.495Z,100
2023-01-19T08:31:23.612Z,100
2023-01-19T08:32:20.593Z,100
2023-01-19T08:33:20.489Z,100
2023-01-19T08:34:20.491Z,100
2023-01-19T08:35:20.490Z,100
2023-01-19T08:36:20.530Z,100
2023-01-19T08:37:20.485Z,100
2023-01-19T08:38:20.496Z,100
2023-01-19T08:39:20.524Z,100
2023-01-19T08:40:20.507Z,100
2023-01-19T08:41:20.481Z,100
2023-01-19T08:42:20.503Z,100
2023-01-19T08:43:20.493Z,100
2023-01-19T08:44:20.495Z,100
2023-01-19T08:45:20.479Z,100
2023-01-19T08:46:20.544Z,100
2023-01-19T08:47:20.576Z,100
2023-01-19T08:48:20.495Z,100
2023-01-19T08:49:20.493Z,100
2023-01-19T08:50:20.493Z,100
2023-01-19T08:51:20.490Z,100
2023-01-19T08:52:20.519Z,100
2023-01-19T08:53:20.487Z,100
2023-01-19T08:54:20.489Z,100
2023-01-19T08:55:20.479Z,100
2023-01-19T08:56:20.863Z,100
2023-01-19T08:57:20.491Z,100
2023-01-19T08:58:20.484Z,100
2023-01-19T08:59:20.506Z,100
2023-01-19T09:00:20.519Z,100
2023-01-19T09:01:20.714Z,100
2023-01-19T09:02:20.728Z,100
2023-01-19T09:03:20.482Z,100
2023-01-19T09:04:20.481Z,100
2023-01-19T09:05:20.504Z,100
2023-01-19T09:06:20.493Z,100
2023-01-19T09:07:20.497Z,100
2023-01-19T09:08:20.479Z,100
2023-01-19T09:09:20.509Z,100
2023-01-19T09:10:20.489Z,100
2023-01-19T09:11:20.484Z,100
2023-01-19T09:12:20.481Z,100
2023-01-19T09:13:20.501Z,100
2023-01-19T09:14:20.489Z,100
2023-01-19T09:15:20.479Z,100
2023-01-19T09:16:20.520Z,100
2023-01-19T09:17:20.483Z,100
2023-01-19T09:18:20.485Z,100
2023-01-19T09:19:20.485Z,100
2023-01-19T09:20:20.675Z,100
2023-01-19T09:21:20.544Z,100
2023-01-19T09:22:20.496Z,100
2023-01-19T09:23:20.506Z,100
2023-01-19T09:24:20.478Z,100
2023-01-19T09:25:20.484Z,100
2023-01-19T09:26:20.486Z,100
2023-01-19T09:27:20.473Z,100
2023-01-19T09:28:20.488Z,100
2023-01-19T09:29:20.480Z,100
2023-01-19T09:30:20.740Z,100
2023-01-19T09:31:20.575Z,100
2023-01-19T09:32:20.486Z,100
2023-01-19T09:33:20.529Z,100
2023-01-19T09:34:20.476Z,100
2023-01-19T09:35:20.487Z,100
2023-01-19T09:36:20.536Z,100
2023-01-19T09:37:20.490Z,100
2023-01-19T09:38:20.474Z,100
2023-01-19T09:39:20.542Z,100
2023-01-19T09:40:20.499Z,100
2023-01-19T09:41:20.571Z,100
2023-01-19T09:42:20.496Z,100
2023-01-19T09:43:20.486Z,100
2023-01-19T09:44:20.480Z,100
2023-01-19T09:45:20.469Z,100
2023-01-19T09:46:20.566Z,100
2023-01-19T09:47:20.489Z,100
2023-01-19T09:48:20.481Z,100
2023-01-19T09:49:20.482Z,100
2023-01-19T09:50:20.568Z,100
2023-01-19T09:51:20.493Z,100
2023-01-19T09:52:20.515Z,100
2023-01-19T09:53:20.482Z,100
2023-01-19T09:54:20.499Z,100
2023-01-19T09:55:20.512Z,100
2023-01-19T09:56:20.475Z,100
2023-01-19T09:57:20.480Z,100
2023-01-19T09:58:20.471Z,100
2023-01-19T09:59:20.518Z,100
2023-01-19T10:00:20.478Z,100
2023-01-19T10:01:20.569Z,100
2023-01-19T10:02:20.484Z,100
2023-01-19T10:03:20.515Z,100
2023-01-19T10:04:20.491Z,100
2023-01-19T10:05:20.476Z,100
2023-01-19T10:06:20.488Z,100
2023-01-19T10:07:20.504Z,100
2023-01-19T10:08:20.476Z,100
2023-01-19T10:09:20.482Z,100
2023-01-19T10:10:20.593Z,100
2023-01-19T10:11:20.497Z,100
2023-01-19T10:12:20.551Z,100
2023-01-19T10:13:20.572Z,100
2023-01-19T10:14:20.622Z,100
2023-01-19T10:15:20.501Z,100
2023-01-19T10:16:20.510Z,100
2023-01-19T10:17:20.491Z,100
2023-01-19T10:18:20.610Z,100
2023-01-19T10:19:20.474Z,100
2023-01-19T10:20:20.479Z,100
2023-01-19T10:21:20.483Z,100
2023-01-19T10:22:20.503Z,100
2023-01-19T10:23:20.469Z,100
2023-01-19T10:24:20.476Z,100
2023-01-19T10:25:20.571Z,100
2023-01-19T10:26:20.491Z,100
2023-01-19T10:27:20.471Z,100
2023-01-19T10:28:20.481Z,100
2023-01-19T10:29:20.506Z,100
2023-01-19T10:30:20.482Z,100
2023-01-19T10:31:20.659Z,100
2023-01-19T10:32:20.540Z,100
2023-01-19T10:33:20.473Z,100
2023-01-19T10:34:23.396Z,100
2023-01-19T10:35:20.522Z,100
2023-01-19T10:36:20.475Z,100
2023-01-19T10:37:20.508Z,100
2023-01-19T10:38:20.541Z,100
2023-01-19T10:39:20.536Z,100
2023-01-19T10:40:20.539Z,100
2023-01-19T10:41:20.473Z,100
2023-01-19T10:42:20.482Z,100
2023-01-19T10:43:20.490Z,100
2023-01-19T10:44:20.479Z,100
2023-01-19T10:45:20.523Z,100
2023-01-19T10:46:20.577Z,100
2023-01-19T10:47:20.598Z,100
2023-01-19T10:48:20.477Z,100
2023-01-19T10:49:20.480Z,100
2023-01-19T10:50:20.494Z,100
2023-01-19T10:51:20.496Z,100
2023-01-19T10:52:20.505Z,100
2023-01-19T10:53:20.514Z,100
2023-01-19T10:54:20.511Z,100
2023-01-19T10:55:20.468Z,100
2023-01-19T10:56:20.502Z,100
2023-01-19T10:57:20.527Z,100
2023-01-19T10:58:20.510Z,100
2023-01-19T10:59:20.510Z,100
2023-01-19T11:00:20.529Z,100
2023-01-19T11:01:20.625Z,100
2023-01-19T11:02:20.785Z,100
2023-01-19T11:03:20.605Z,100
2023-01-19T11:04:20.479Z,100
2023-01-19T11:05:20.486Z,100
2023-01-19T11:06:20.478Z,100
2023-01-19T11:07:20.501Z,100
2023-01-19T11:08:20.480Z,100
2023-01-19T11:09:20.490Z,100
2023-01-19T11:10:20.486Z,100
2023-01-19T11:11:20.498Z,100
2023-01-19T11:12:20.492Z,100
2023-01-19T11:13:20.478Z,100
2023-01-19T11:14:20.474Z,100
2023-01-19T11:15:20.466Z,100
2023-01-19T11:16:20.514Z,100
2023-01-19T11:17:20.494Z,100
2023-01-19T11:18:20.475Z,100
2023-01-19T11:19:20.481Z,100
2023-01-19T11:20:20.471Z,100
2023-01-19T11:21:20.555Z,100
2023-01-19T11:22:27.294Z,100
2023-01-19T11:23:20.473Z,100
2023-01-19T11:24:20.456Z,100
2023-01-19T11:25:20.468Z,100
2023-01-19T11:26:20.463Z,100
2023-01-19T11:27:20.503Z,100
2023-01-19T11:28:20.474Z,100
2023-01-19T11:29:20.463Z,100
2023-01-19T11:30:20.500Z,100
2023-01-19T11:31:20.576Z,100
2023-01-19T11:32:20.488Z,100
2023-01-19T11:33:20.459Z,100
2023-01-19T11:34:20.473Z,100
2023-01-19T11:35:20.463Z,100
2023-01-19T11:36:20.457Z,100
2023-01-19T11:37:20.483Z,100
2023-01-19T11:38:20.467Z,100
2023-01-19T11:39:20.473Z,100
2023-01-19T11:40:20.495Z,100
2023-01-19T11:41:20.482Z,100
2023-01-19T11:42:20.457Z,100
2023-01-19T11:43:20.460Z,100
2023-01-19T11:44:20.458Z,100
2023-01-19T11:45:20.489Z,100
2023-01-19T11:46:20.473Z,100
2023-01-19T11:47:20.459Z,100
2023-01-19T11:48:20.456Z,100
2023-01-19T11:49:20.454Z,100
2023-01-19T11:50:20.468Z,100
2023-01-19T11:51:20.460Z,100
2023-01-19T11:52:20.458Z,100
2023-01-19T11:53:20.475Z,100
2023-01-19T12:11:58.018Z,100
2023-01-19T12:12:57.131Z,100
2023-01-19T12:13:57.701Z,100
2023-01-19T12:14:57.212Z,100
2023-01-19T12:15:57.781Z,100
2023-01-19T12:16:57.310Z,100
2023-01-19T12:17:57.162Z,100
2023-01-19T12:18:57.325Z,100
2023-01-19T12:19:57.091Z,100
2023-01-19T12:20:57.094Z,100
2023-01-19T12:21:57.305Z,100
2023-01-19T12:22:58.965Z,100
2023-01-19T12:23:58.009Z,100
2023-01-19T12:24:57.128Z,100
2023-01-19T12:25:58.176Z,100
2023-01-19T12:26:57.842Z,100
2023-01-19T12:27:57.902Z,100
2023-01-19T12:28:57.840Z,99.5
2023-01-19T12:29:57.824Z,99.1
2023-01-19T12:30:57.406Z,98.4
2023-01-19T12:31:57.649Z,97.9
2023-01-19T12:32:57.416Z,97.5
2023-01-19T12:33:57.644Z,96
2023-01-19T12:34:57.118Z,95.3
2023-01-19T12:35:57.831Z,94.8
2023-01-19T12:36:57.095Z,95.2
2023-01-19T12:37:57.174Z,95.2
2023-01-19T12:38:57.090Z,94.7
2023-01-19T12:39:57.865Z,94.5
2023-01-19T12:42:57.117Z,94.4
2023-01-19T12:43:57.327Z,95
2023-01-19T12:44:57.097Z,94.9
2023-01-19T12:45:57.367Z,95.5
2023-01-19T12:46:57.093Z,96
2023-01-19T12:47:57.097Z,96.6
2023-01-19T12:48:57.965Z,97
2023-01-19T12:49:57.088Z,97.1
2023-01-19T12:50:57.285Z,97.1
2023-01-19T12:51:57.803Z,96.3
2023-01-19T12:53:57.953Z,96.3
2023-01-19T12:55:57.394Z,96.5
2023-01-19T12:56:57.085Z,96
2023-01-19T12:57:57.942Z,95.5
2023-01-19T12:58:57.624Z,94.7
2023-01-19T12:59:57.110Z,93.9
2023-01-19T13:00:57.155Z,93.7
2023-01-19T13:01:57.143Z,93.9
2023-01-19T13:02:57.151Z,94
2023-01-19T13:03:57.527Z,93.6
2023-01-19T13:04:57.117Z,93.9
2023-01-19T13:05:57.777Z,94.2
2023-01-19T13:06:57.248Z,94.5
2023-01-19T13:07:57.085Z,94.3
2023-01-19T13:08:57.213Z,94.2
2023-01-19T13:09:57.122Z,94
2023-01-19T13:10:57.407Z,93.9
2023-01-19T13:12:00.981Z,94.5
2023-01-19T13:14:57.276Z,92.7
2023-01-19T13:15:57.144Z,91.8
2023-01-19T13:16:57.095Z,91.3
2023-01-19T13:17:57.733Z,91
2023-01-19T13:18:57.112Z,89.8
2023-01-19T13:19:57.118Z,90.5
2023-01-19T13:20:57.099Z,90.7
2023-01-19T13:21:57.143Z,89.4
2023-01-19T13:22:56.701Z,89.7
2023-01-19T13:23:57.106Z,90.3
2023-01-19T13:24:57.009Z,91.1
2023-01-19T13:25:57.086Z,91.5
2023-01-19T13:26:57.906Z,91.8
2023-01-19T13:27:57.098Z,91.2
2023-01-19T13:28:57.141Z,91.1
2023-01-19T13:29:57.153Z,91.3
2023-01-19T13:30:57.332Z,91.6
2023-01-19T13:31:57.275Z,91.6
2023-01-19T13:32:57.996Z,92.5
2023-01-19T13:33:57.953Z,93.1
2023-01-19T13:34:57.107Z,93.4
2023-01-19T13:35:57.100Z,93.9
2023-01-19T13:37:57.117Z,93.9
2023-01-19T13:38:57.414Z,93.3
2023-01-19T13:39:57.541Z,93.2
2023-01-19T13:40:57.110Z,92
2023-01-19T13:41:57.077Z,91.7
2023-01-19T13:42:57.468Z,91.3
2023-01-19T13:43:57.604Z,91.8
2023-01-19T13:44:57.601Z,92.3
2023-01-19T13:45:57.237Z,92.5
2023-01-19T13:47:56.170Z,92.3
2023-01-19T13:48:57.149Z,92.3
2023-01-19T13:49:57.092Z,92.4
2023-01-19T13:50:57.971Z,92.1
2023-01-19T13:51:57.428Z,91.9
2023-01-19T13:52:56.565Z,92.1
2023-01-19T13:53:57.598Z,92.3
2023-01-19T13:55:00.537Z,92.9
2023-01-19T13:55:57.090Z,92.7
2023-01-19T13:56:57.705Z,92.2
2023-01-19T13:58:56.167Z,90.2
2023-01-19T13:59:56.198Z,89.8
2023-01-19T14:01:57.248Z,89.6
2023-01-19T14:02:57.253Z,89.5